Time;durP1;ratioP1;P1;durP2;ratioP2;P2;SDS_P1;SDS_P2;PMS_P1;PMS_P2;Temp;Humidity;BMP_temperature;BMP_pressure;BME280_temperature;BME280_humidity;BME280_pressure;Samples;Min_cycle;Max_cycle;Signal;HPM_P1;HPM_P2
2021/12/07 09:34:31;;;;;;;11.48;3.40;;;;;;;2.08;100.00;100527.75;5144951;27;20336;-77
2021/12/07 09:37:03;;;;;;;;;;;;;;;2.27;100.00;100512.78;5112288;28;20071;-78
2021/12/07 09:39:38;;;;;;;14.18;3.33;;;;;;;2.22;100.00;100475.72;5111342;28;19912;-77
2021/12/07 09:42:04;;;;;;;;;;;;;;;2.47;100.00;100518.59;5146159;27;20111;-78
2021/12/07 09:44:39;;;;;;;;;;;;;;;2.49;100.00;100519.38;5113120;28;20006;-75
2021/12/07 09:47:05;;;;;;;16.48;3.40;;;;;;;2.47;100.00;100467.31;5113221;28;19930;-78
2021/12/07 09:49:32;;;;;;;14.75;3.45;;;;;;;2.51;100.00;100513.13;5113276;28;20012;-77
2021/12/07 09:51:58;;;;;;;11.48;2.92;;;;;;;2.45;100.00;100529.16;5145672;27;20039;-77
2021/12/07 09:54:24;;;;;;;20.77;3.42;;;;;;;2.50;100.00;100493.22;5095865;28;20048;-78
2021/12/07 09:56:53;;;;;;;22.80;3.80;;;;;;;2.79;100.00;100508.06;5110085;28;20024;-78
2021/12/07 09:59:22;;;;;;;18.50;3.22;;;;;;;2.81;100.00;100493.19;5096984;28;20481;-78
2021/12/07 10:01:52;;;;;;;21.23;3.60;;;;;;;2.79;100.00;100500.25;5111597;28;20072;-78
2021/12/07 10:04:19;;;;;;;11.80;2.90;;;;;;;2.86;100.00;100527.63;5575072;22;20052;-77
2021/12/07 10:06:44;;;;;;;12.98;2.97;;;;;;;2.71;100.00;100505.94;5053620;28;20044;-77
2021/12/07 10:09:10;;;;;;;13.00;3.30;;;;;;;2.76;100.00;100540.38;5053669;28;20029;-77
2021/12/07 10:11:37;;;;;;;23.45;3.97;;;;;;;2.56;100.00;100475.53;5072172;28;20052;-77
2021/12/07 10:14:03;;;;;;;16.08;2.95;;;;;;;2.56;100.00;100473.75;5054698;28;20116;-77
2021/12/07 10:16:29;;;;;;;14.98;2.92;;;;;;;2.57;100.00;100474.63;5052569;28;20029;-77
2021/12/07 10:18:55;;;;;;;22.35;3.20;;;;;;;2.67;100.00;100447.91;5037117;28;20013;-77
2021/12/07 10:21:25;;;;;;;19.65;3.08;;;;;;;2.71;100.00;100466.81;5053022;28;20536;-78
2021/12/07 10:24:26;;;;;;;13.75;3.28;;;;;;;3.14;100.00;100512.03;5051889;28;20451;-78
2021/12/07 10:27:10;;;;;;;13.40;3.40;;;;;;;2.76;100.00;100453.50;5044335;28;20463;-77
2021/12/07 10:29:41;;;;;;;12.05;2.78;;;;;;;3.00;100.00;100495.50;5069713;28;20028;-77
2021/12/07 10:32:08;;;;;;;11.90;3.35;;;;;;;2.88;100.00;100442.31;5069780;28;20040;-77
2021/12/07 10:34:40;;;;;;;20.60;2.80;;;;;;;3.28;100.00;100474.63;5052281;28;20047;-77
2021/12/07 10:37:12;;;;;;;12.45;2.85;;;;;;;3.37;100.00;100447.13;5052160;28;20455;-77
2021/12/07 10:39:45;;;;;;;12.00;2.95;;;;;;;3.42;100.00;100467.72;5036773;28;20037;-77
2021/12/07 10:42:15;;;;;;;14.20;2.65;;;;;;;3.40;100.00;100460.00;5056621;28;20032;-77
2021/12/07 10:44:42;;;;;;;14.50;2.55;;;;;;;3.54;100.00;100464.34;5063623;28;20028;-78
2021/12/07 10:47:23;;;;;;;16.17;3.55;;;;;;;3.27;100.00;100407.75;5041466;28;20017;-77
2021/12/07 10:49:54;;;;;;;10.07;2.60;;;;;;;3.61;100.00;100467.41;5049846;28;20087;-76
2021/12/07 10:52:29;;;;;;;15.23;2.78;;;;;;;3.78;100.00;100471.56;5071506;28;20028;-76
2021/12/07 10:55:02;;;;;;;15.63;3.22;;;;;;;3.93;100.00;100447.91;5032553;28;20443;-78
2021/12/07 10:57:32;;;;;;;12.90;2.50;;;;;;;4.01;100.00;100389.94;5068652;28;20029;-78
2021/12/07 11:00:08;;;;;;;12.65;2.50;;;;;;;4.46;100.00;100447.09;5053182;28;20028;-77
2021/12/07 11:02:37;;;;;;;17.33;2.80;;;;;;;4.81;100.00;100442.06;5036920;28;20025;-77
2021/12/07 11:05:12;;;;;;;13.65;2.55;;;;;;;4.57;100.00;100415.81;5054011;28;20052;-79
2021/12/07 11:07:40;;;;;;;15.85;3.10;;;;;;;4.75;100.00;100398.03;5070609;28;20033;-78
2021/12/07 11:10:18;;;;;;;13.27;2.47;;;;;;;5.05;100.00;100405.53;5069060;28;20024;-77
2021/12/07 11:13:06;;;;;;;19.13;3.05;;;;;;;5.44;100.00;100422.78;5044833;28;20116;-77
2021/12/07 11:15:50;;;;;;;17.33;3.08;;;;;;;5.45;100.00;100373.91;5060046;28;20033;-77
2021/12/07 11:18:42;;;;;;;15.55;3.50;;;;;;;5.87;100.00;100382.19;5053349;28;20040;-78
2021/12/07 11:21:19;;;;;;;11.75;2.72;;;;;;;6.45;100.00;100398.81;5052884;28;20052;-79
2021/12/07 11:23:53;;;;;;;17.73;3.28;;;;;;;7.01;100.00;100391.91;5067850;28;20071;-77
2021/12/07 11:31:57;;;;;;;21.58;4.05;;;;;;;7.00;100.00;100414.72;5054936;28;20025;-77
2021/12/07 11:34:39;;;;;;;24.23;3.53;;;;;;;5.79;100.00;100382.75;5021164;28;20024;-77
2021/12/07 11:37:14;;;;;;;11.93;2.78;;;;;;;5.15;100.00;100406.53;5041101;28;20387;-78
2021/12/07 11:39:48;;;;;;;;;;;;;;;5.05;100.00;100395.06;5038188;28;20025;-77
2021/12/07 11:42:25;;;;;;;18.75;3.20;;;;;;;4.92;100.00;100365.47;5024761;28;19912;-78
2021/12/07 11:44:58;;;;;;;15.13;3.30;;;;;;;4.82;100.00;100352.19;5038461;28;20024;-77
2021/12/07 11:47:39;;;;;;;13.30;2.72;;;;;;;5.35;100.00;100367.66;5008216;28;20025;-77
2021/12/07 11:50:18;;;;;;;14.10;3.33;;;;;;;4.72;100.00;100336.28;5054440;28;20026;-78
2021/12/07 11:52:46;;;;;;;13.57;3.15;;;;;;;5.20;100.00;100367.81;5022423;28;20045;-76
2021/12/07 11:55:14;;;;;;;14.73;3.15;;;;;;;5.22;100.00;100370.28;5041518;28;20029;-77
2021/12/07 11:57:41;;;;;;;16.40;3.35;;;;;;;5.03;100.00;100345.44;5019824;28;20013;-77
2021/12/07 12:00:16;;;;;;;17.05;3.95;;;;;;;5.13;100.00;100327.31;5037059;28;20025;-77
2021/12/07 12:02:45;;;;;;;19.88;3.88;;;;;;;5.78;100.00;100346.16;5008795;28;20078;-78
2021/12/07 12:05:11;;;;;;;16.52;3.78;;;;;;;6.10;100.00;100325.44;5037448;28;20440;-78
2021/12/07 12:07:42;;;;;;;20.85;3.88;;;;;;;5.50;100.00;100280.13;5036965;28;20112;-78
2021/12/07 12:10:12;;;;;;;22.33;4.25;;;;;;;5.82;100.00;100335.34;5021137;28;20429;-77
2021/12/07 12:13:07;;;;;;;18.83;4.43;;;;;;;5.21;100.00;100324.97;5058571;28;20021;-76
2021/12/07 12:16:08;;;;;;;21.83;5.30;;;;;;;5.28;100.00;100320.13;5040176;28;20036;-77
2021/12/07 12:18:49;;;;;;;22.00;5.00;;;;;;;5.53;100.00;100310.47;5038170;28;20100;-77
2021/12/07 12:21:52;;;;;;;25.33;5.07;;;;;;;5.70;100.00;100298.75;5037750;28;20550;-77
2021/12/07 12:24:52;;;;;;;24.10;4.80;;;;;;;5.48;100.00;100295.09;5059049;28;20032;-77
2021/12/07 12:27:22;;;;;;;16.38;4.18;;;;;;;5.71;100.00;100276.84;5027334;28;20033;-78
2021/12/07 12:29:54;;;;;;;22.95;4.72;;;;;;;5.44;100.00;100221.16;5041136;28;20021;-79
2021/12/07 12:32:36;;;;;;;27.30;4.43;;;;;;;4.86;100.00;100259.47;5021926;28;20025;-76
2021/12/07 12:35:09;;;;;;;22.10;3.90;;;;;;;5.76;100.00;100240.66;5009446;28;20574;-76
2021/12/07 12:37:51;;;;;;;17.77;4.30;;;;;;;5.49;100.00;100243.56;5043908;28;20089;-78
2021/12/07 12:40:24;;;;;;;21.05;5.00;;;;;;;5.21;100.00;100222.88;5012364;28;20031;-78
